sensor_id;sensor_type;location;lat;lon;timestamp;P1;durP1;ratioP1;P2;durP2;ratioP2
59271;SDS011;45043;51.068;7.026;2022-09-14T00:00:38;22.40;;;19.47;;
59271;SDS011;45043;51.068;7.026;2022-09-14T00:03:41;21.53;;;19.00;;
59271;SDS011;45043;51.068;7.026;2022-09-14T00:06:42;19.97;;;17.87;;
59271;SDS011;45043;51.068;7.026;2022-09-14T00:09:43;19.33;;;17.33;;
59271;SDS011;45043;51.068;7.026;2022-09-14T00:12:44;21.80;;;17.63;;
59271;SDS011;45043;51.068;7.026;2022-09-14T00:15:44;20.83;;;17.67;;
59271;SDS011;45043;51.068;7.026;2022-09-14T00:18:49;20.80;;;18.00;;
59271;SDS011;45043;51.068;7.026;2022-09-14T00:21:54;19.50;;;17.47;;
59271;SDS011;45043;51.068;7.026;2022-09-14T00:24:57;19.23;;;17.30;;
59271;SDS011;45043;51.068;7.026;2022-09-14T00:27:57;19.73;;;17.73;;
59271;SDS011;45043;51.068;7.026;2022-09-14T00:30:58;19.13;;;17.23;;
59271;SDS011;45043;51.068;7.026;2022-09-14T00:33:59;18.13;;;16.23;;
59271;SDS011;45043;51.068;7.026;2022-09-14T00:37:01;20.10;;;18.00;;
59271;SDS011;45043;51.068;7.026;2022-09-14T00:40:02;19.33;;;17.40;;
59271;SDS011;45043;51.068;7.026;2022-09-14T00:43:07;22.90;;;19.43;;
59271;SDS011;45043;51.068;7.026;2022-09-14T00:46:14;26.93;;;22.73;;
59271;SDS011;45043;51.068;7.026;2022-09-14T00:49:15;25.00;;;22.30;;
59271;SDS011;45043;51.068;7.026;2022-09-14T00:52:27;24.60;;;22.10;;
59271;SDS011;45043;51.068;7.026;2022-09-14T00:55:32;23.67;;;21.20;;
59271;SDS011;45043;51.068;7.026;2022-09-14T00:58:32;23.30;;;20.97;;
59271;SDS011;45043;51.068;7.026;2022-09-14T01:01:33;27.87;;;24.87;;
59271;SDS011;45043;51.068;7.026;2022-09-14T01:04:34;39.00;;;32.20;;
59271;SDS011;45043;51.068;7.026;2022-09-14T01:07:44;31.90;;;28.43;;
59271;SDS011;45043;51.068;7.026;2022-09-14T01:10:57;32.53;;;29.10;;
59271;SDS011;45043;51.068;7.026;2022-09-14T01:14:16;29.20;;;26.17;;
59271;SDS011;45043;51.068;7.026;2022-09-14T01:17:59;29.13;;;26.00;;
59271;SDS011;45043;51.068;7.026;2022-09-14T01:21:09;34.93;;;29.70;;
59271;SDS011;45043;51.068;7.026;2022-09-14T01:24:16;29.47;;;26.23;;
59271;SDS011;45043;51.068;7.026;2022-09-14T01:27:25;32.70;;;27.20;;
59271;SDS011;45043;51.068;7.026;2022-09-14T01:30:31;31.97;;;26.60;;
59271;SDS011;45043;51.068;7.026;2022-09-14T01:33:36;35.40;;;28.73;;
59271;SDS011;45043;51.068;7.026;2022-09-14T01:36:41;33.87;;;26.43;;
59271;SDS011;45043;51.068;7.026;2022-09-14T01:39:49;32.37;;;26.90;;
59271;SDS011;45043;51.068;7.026;2022-09-14T01:43:17;37.10;;;28.83;;
59271;SDS011;45043;51.068;7.026;2022-09-14T01:46:18;35.30;;;28.33;;
59271;SDS011;45043;51.068;7.026;2022-09-14T01:49:27;38.93;;;28.03;;
59271;SDS011;45043;51.068;7.026;2022-09-14T01:52:33;36.07;;;28.07;;
59271;SDS011;45043;51.068;7.026;2022-09-14T01:56:00;34.40;;;25.77;;
59271;SDS011;45043;51.068;7.026;2022-09-14T01:59:09;38.77;;;28.00;;
59271;SDS011;45043;51.068;7.026;2022-09-14T02:02:16;39.50;;;30.27;;
59271;SDS011;45043;51.068;7.026;2022-09-14T02:09:04;38.70;;;30.90;;
59271;SDS011;45043;51.068;7.026;2022-09-14T02:12:07;41.07;;;30.07;;
59271;SDS011;45043;51.068;7.026;2022-09-14T02:15:08;39.33;;;30.10;;
59271;SDS011;45043;51.068;7.026;2022-09-14T02:18:12;41.40;;;31.83;;
59271;SDS011;45043;51.068;7.026;2022-09-14T02:21:13;43.20;;;31.80;;
59271;SDS011;45043;51.068;7.026;2022-09-14T02:24:17;38.03;;;30.00;;
59271;SDS011;45043;51.068;7.026;2022-09-14T02:27:18;36.83;;;28.57;;
59271;SDS011;45043;51.068;7.026;2022-09-14T02:30:19;41.30;;;31.60;;
59271;SDS011;45043;51.068;7.026;2022-09-14T02:33:23;38.47;;;29.03;;
59271;SDS011;45043;51.068;7.026;2022-09-14T02:46:45;40.03;;;30.93;;
59271;SDS011;45043;51.068;7.026;2022-09-14T02:56:47;38.83;;;31.67;;
59271;SDS011;45043;51.068;7.026;2022-09-14T02:59:48;35.93;;;30.30;;
59271;SDS011;45043;51.068;7.026;2022-09-14T03:02:48;36.40;;;30.30;;
59271;SDS011;45043;51.068;7.026;2022-09-14T03:05:49;38.17;;;30.47;;
59271;SDS011;45043;51.068;7.026;2022-09-14T03:08:50;36.03;;;30.43;;
59271;SDS011;45043;51.068;7.026;2022-09-14T03:11:50;38.80;;;31.13;;
59271;SDS011;45043;51.068;7.026;2022-09-14T03:14:51;34.90;;;29.87;;
59271;SDS011;45043;51.068;7.026;2022-09-14T03:17:51;35.90;;;30.87;;
59271;SDS011;45043;51.068;7.026;2022-09-14T03:20:52;31.30;;;27.90;;
59271;SDS011;45043;51.068;7.026;2022-09-14T03:23:52;33.13;;;28.53;;
59271;SDS011;45043;51.068;7.026;2022-09-14T03:26:57;32.17;;;28.30;;
59271;SDS011;45043;51.068;7.026;2022-09-14T03:29:57;34.07;;;29.00;;
59271;SDS011;45043;51.068;7.026;2022-09-14T03:32:58;35.00;;;30.50;;
59271;SDS011;45043;51.068;7.026;2022-09-14T03:35:59;34.70;;;29.83;;
59271;SDS011;45043;51.068;7.026;2022-09-14T03:39:00;33.73;;;28.03;;
59271;SDS011;45043;51.068;7.026;2022-09-14T03:42:01;33.37;;;29.10;;
59271;SDS011;45043;51.068;7.026;2022-09-14T03:45:01;34.47;;;29.90;;
59271;SDS011;45043;51.068;7.026;2022-09-14T03:48:03;28.40;;;25.37;;
59271;SDS011;45043;51.068;7.026;2022-09-14T03:51:04;23.30;;;19.93;;
59271;SDS011;45043;51.068;7.026;2022-09-14T03:54:07;17.67;;;14.40;;
59271;SDS011;45043;51.068;7.026;2022-09-14T03:57:07;12.93;;;10.97;;
59271;SDS011;45043;51.068;7.026;2022-09-14T04:00:09;12.07;;;10.53;;
59271;SDS011;45043;51.068;7.026;2022-09-14T04:03:14;14.70;;;10.53;;
59271;SDS011;45043;51.068;7.026;2022-09-14T04:06:14;11.50;;;9.73;;
59271;SDS011;45043;51.068;7.026;2022-09-14T04:09:16;10.97;;;9.67;;
59271;SDS011;45043;51.068;7.026;2022-09-14T04:12:18;11.90;;;10.70;;
59271;SDS011;45043;51.068;7.026;2022-09-14T04:15:18;11.20;;;10.10;;
59271;SDS011;45043;51.068;7.026;2022-09-14T04:18:19;11.10;;;10.10;;
59271;SDS011;45043;51.068;7.026;2022-09-14T04:21:21;12.70;;;9.70;;
59271;SDS011;45043;51.068;7.026;2022-09-14T04:24:23;6.57;;;5.93;;
59271;SDS011;45043;51.068;7.026;2022-09-14T04:27:23;7.70;;;6.90;;
59271;SDS011;45043;51.068;7.026;2022-09-14T04:30:24;6.20;;;5.60;;
59271;SDS011;45043;51.068;7.026;2022-09-14T04:33:25;6.17;;;5.53;;
59271;SDS011;45043;51.068;7.026;2022-09-14T04:36:28;7.47;;;6.10;;
59271;SDS011;45043;51.068;7.026;2022-09-14T04:39:30;9.73;;;8.30;;
59271;SDS011;45043;51.068;7.026;2022-09-14T04:42:30;6.70;;;6.10;;
59271;SDS011;45043;51.068;7.026;2022-09-14T04:45:30;9.50;;;8.50;;
59271;SDS011;45043;51.068;7.026;2022-09-14T04:48:31;9.17;;;8.00;;
59271;SDS011;45043;51.068;7.026;2022-09-14T04:51:34;9.73;;;7.80;;
59271;SDS011;45043;51.068;7.026;2022-09-14T04:54:36;11.80;;;9.40;;
59271;SDS011;45043;51.068;7.026;2022-09-14T04:57:36;10.57;;;8.47;;
59271;SDS011;45043;51.068;7.026;2022-09-14T05:00:37;7.20;;;6.47;;
59271;SDS011;45043;51.068;7.026;2022-09-14T05:03:38;8.20;;;6.70;;
59271;SDS011;45043;51.068;7.026;2022-09-14T05:06:40;8.23;;;6.90;;
59271;SDS011;45043;51.068;7.026;2022-09-14T05:09:41;8.87;;;6.17;;
59271;SDS011;45043;51.068;7.026;2022-09-14T05:12:42;9.43;;;7.33;;
59271;SDS011;45043;51.068;7.026;2022-09-14T05:15:43;7.10;;;6.40;;
59271;SDS011;45043;51.068;7.026;2022-09-14T05:18:43;8.13;;;6.57;;
59271;SDS011;45043;51.068;7.026;2022-09-14T05:21:45;7.20;;;6.50;;
59271;SDS011;45043;51.068;7.026;2022-09-14T05:24:45;7.00;;;5.80;;
59271;SDS011;45043;51.068;7.026;2022-09-14T05:27:46;6.23;;;5.23;;
59271;SDS011;45043;51.068;7.026;2022-09-14T05:30:46;7.93;;;5.00;;
59271;SDS011;45043;51.068;7.026;2022-09-14T05:33:47;8.37;;;5.00;;
59271;SDS011;45043;51.068;7.026;2022-09-14T05:36:47;6.90;;;5.50;;
59271;SDS011;45043;51.068;7.026;2022-09-14T05:39:48;6.40;;;4.70;;
59271;SDS011;45043;51.068;7.026;2022-09-14T05:42:48;4.67;;;4.00;;
59271;SDS011;45043;51.068;7.026;2022-09-14T05:45:49;5.63;;;4.80;;
59271;SDS011;45043;51.068;7.026;2022-09-14T05:48:51;5.70;;;5.13;;
59271;SDS011;45043;51.068;7.026;2022-09-14T05:51:51;6.97;;;4.67;;
59271;SDS011;45043;51.068;7.026;2022-09-14T05:54:52;5.00;;;3.73;;
59271;SDS011;45043;51.068;7.026;2022-09-14T05:57:52;7.73;;;4.37;;
59271;SDS011;45043;51.068;7.026;2022-09-14T06:00:53;5.83;;;4.70;;
59271;SDS011;45043;51.068;7.026;2022-09-14T06:03:54;5.60;;;5.10;;
59271;SDS011;45043;51.068;7.026;2022-09-14T06:06:59;5.47;;;4.60;;
59271;SDS011;45043;51.068;7.026;2022-09-14T06:09:59;6.07;;;4.73;;
59271;SDS011;45043;51.068;7.026;2022-09-14T06:13:00;7.90;;;5.20;;
59271;SDS011;45043;51.068;7.026;2022-09-14T06:16:01;6.63;;;5.27;;
59271;SDS011;45043;51.068;7.026;2022-09-14T06:19:07;5.73;;;4.60;;
59271;SDS011;45043;51.068;7.026;2022-09-14T06:22:08;7.97;;;5.43;;
59271;SDS011;45043;51.068;7.026;2022-09-14T06:25:08;6.73;;;6.00;;
59271;SDS011;45043;51.068;7.026;2022-09-14T06:28:10;6.17;;;5.67;;
59271;SDS011;45043;51.068;7.026;2022-09-14T06:31:12;6.77;;;6.13;;
59271;SDS011;45043;51.068;7.026;2022-09-14T06:34:13;5.07;;;4.57;;
59271;SDS011;45043;51.068;7.026;2022-09-14T06:37:14;7.47;;;6.50;;
59271;SDS011;45043;51.068;7.026;2022-09-14T06:40:14;7.40;;;6.13;;
59271;SDS011;45043;51.068;7.026;2022-09-14T06:43:15;7.53;;;6.53;;
59271;SDS011;45043;51.068;7.026;2022-09-14T06:46:17;6.17;;;5.57;;
59271;SDS011;45043;51.068;7.026;2022-09-14T06:49:19;5.80;;;5.30;;
59271;SDS011;45043;51.068;7.026;2022-09-14T06:52:22;7.83;;;7.10;;
59271;SDS011;45043;51.068;7.026;2022-09-14T06:55:23;7.43;;;6.33;;
59271;SDS011;45043;51.068;7.026;2022-09-14T06:58:23;8.00;;;6.13;;
59271;SDS011;45043;51.068;7.026;2022-09-14T07:01:24;7.37;;;5.67;;
59271;SDS011;45043;51.068;7.026;2022-09-14T07:04:26;7.60;;;6.90;;
59271;SDS011;45043;51.068;7.026;2022-09-14T07:07:26;6.53;;;5.93;;
59271;SDS011;45043;51.068;7.026;2022-09-14T07:10:27;6.20;;;5.67;;
59271;SDS011;45043;51.068;7.026;2022-09-14T07:13:28;5.40;;;4.90;;
59271;SDS011;45043;51.068;7.026;2022-09-14T07:16:31;4.70;;;4.30;;
59271;SDS011;45043;51.068;7.026;2022-09-14T07:19:33;8.20;;;5.60;;
59271;SDS011;45043;51.068;7.026;2022-09-14T07:22:34;8.07;;;5.27;;
59271;SDS011;45043;51.068;7.026;2022-09-14T07:25:35;7.63;;;6.13;;
59271;SDS011;45043;51.068;7.026;2022-09-14T07:28:36;6.97;;;6.30;;
59271;SDS011;45043;51.068;7.026;2022-09-14T07:31:39;5.57;;;4.87;;
59271;SDS011;45043;51.068;7.026;2022-09-14T07:34:42;5.87;;;4.90;;
59271;SDS011;45043;51.068;7.026;2022-09-14T07:37:43;4.87;;;4.47;;
59271;SDS011;45043;51.068;7.026;2022-09-14T07:40:43;5.37;;;3.87;;
59271;SDS011;45043;51.068;7.026;2022-09-14T07:43:48;4.30;;;3.90;;
59271;SDS011;45043;51.068;7.026;2022-09-14T07:46:50;4.03;;;3.67;;
59271;SDS011;45043;51.068;7.026;2022-09-14T07:49:50;3.50;;;3.20;;
59271;SDS011;45043;51.068;7.026;2022-09-14T07:52:51;4.33;;;3.07;;
59271;SDS011;45043;51.068;7.026;2022-09-14T07:55:51;4.13;;;3.73;;
59271;SDS011;45043;51.068;7.026;2022-09-14T07:58:53;3.90;;;3.40;;
59271;SDS011;45043;51.068;7.026;2022-09-14T08:01:56;5.53;;;4.17;;
59271;SDS011;45043;51.068;7.026;2022-09-14T08:04:56;8.33;;;5.63;;
59271;SDS011;45043;51.068;7.026;2022-09-14T08:07:59;5.97;;;4.80;;
59271;SDS011;45043;51.068;7.026;2022-09-14T08:11:03;5.27;;;4.47;;
59271;SDS011;45043;51.068;7.026;2022-09-14T08:14:08;4.40;;;4.00;;
59271;SDS011;45043;51.068;7.026;2022-09-14T08:17:10;5.23;;;4.43;;
59271;SDS011;45043;51.068;7.026;2022-09-14T08:20:11;4.93;;;3.60;;
59271;SDS011;45043;51.068;7.026;2022-09-14T08:23:12;4.47;;;3.80;;
59271;SDS011;45043;51.068;7.026;2022-09-14T08:26:13;4.57;;;3.73;;
59271;SDS011;45043;51.068;7.026;2022-09-14T08:29:19;4.07;;;3.67;;
59271;SDS011;45043;51.068;7.026;2022-09-14T08:32:19;8.07;;;3.50;;
59271;SDS011;45043;51.068;7.026;2022-09-14T08:35:20;4.03;;;3.60;;
59271;SDS011;45043;51.068;7.026;2022-09-14T08:38:20;5.27;;;3.63;;
59271;SDS011;45043;51.068;7.026;2022-09-14T08:41:25;4.67;;;3.50;;
59271;SDS011;45043;51.068;7.026;2022-09-14T08:44:49;4.97;;;3.77;;
59271;SDS011;45043;51.068;7.026;2022-09-14T08:47:55;7.83;;;4.03;;
59271;SDS011;45043;51.068;7.026;2022-09-14T08:50:58;6.23;;;4.20;;
59271;SDS011;45043;51.068;7.026;2022-09-14T08:53:58;6.83;;;3.80;;
59271;SDS011;45043;51.068;7.026;2022-09-14T08:57:10;4.80;;;3.63;;
59271;SDS011;45043;51.068;7.026;2022-09-14T09:00:19;6.17;;;3.10;;
59271;SDS011;45043;51.068;7.026;2022-09-14T09:06:58;4.90;;;3.20;;
59271;SDS011;45043;51.068;7.026;2022-09-14T09:10:26;6.40;;;2.90;;
59271;SDS011;45043;51.068;7.026;2022-09-14T09:13:31;5.10;;;3.00;;
59271;SDS011;45043;51.068;7.026;2022-09-14T09:16:36;2.70;;;2.47;;
59271;SDS011;45043;51.068;7.026;2022-09-14T09:19:38;3.07;;;2.77;;
59271;SDS011;45043;51.068;7.026;2022-09-14T09:22:59;3.47;;;2.80;;
59271;SDS011;45043;51.068;7.026;2022-09-14T09:29:08;3.40;;;2.93;;
59271;SDS011;45043;51.068;7.026;2022-09-14T09:32:29;3.70;;;3.00;;
59271;SDS011;45043;51.068;7.026;2022-09-14T09:36:07;4.27;;;2.97;;
59271;SDS011;45043;51.068;7.026;2022-09-14T09:39:13;7.10;;;4.27;;
59271;SDS011;45043;51.068;7.026;2022-09-14T09:42:21;7.30;;;6.13;;
59271;SDS011;45043;51.068;7.026;2022-09-14T09:45:23;9.40;;;5.20;;
59271;SDS011;45043;51.068;7.026;2022-09-14T09:48:46;6.87;;;4.30;;
59271;SDS011;45043;51.068;7.026;2022-09-14T09:51:46;8.23;;;5.43;;
59271;SDS011;45043;51.068;7.026;2022-09-14T09:54:49;7.77;;;4.27;;
59271;SDS011;45043;51.068;7.026;2022-09-14T09:57:52;4.00;;;3.70;;
59271;SDS011;45043;51.068;7.026;2022-09-14T10:00:54;3.50;;;3.17;;
59271;SDS011;45043;51.068;7.026;2022-09-14T10:07:18;4.40;;;2.90;;
59271;SDS011;45043;51.068;7.026;2022-09-14T10:10:25;3.60;;;3.10;;
59271;SDS011;45043;51.068;7.026;2022-09-14T10:13:42;3.73;;;3.43;;
59271;SDS011;45043;51.068;7.026;2022-09-14T10:16:46;4.90;;;3.90;;
59271;SDS011;45043;51.068;7.026;2022-09-14T10:19:47;3.90;;;3.50;;
59271;SDS011;45043;51.068;7.026;2022-09-14T10:22:51;4.60;;;3.40;;
59271;SDS011;45043;51.068;7.026;2022-09-14T10:26:11;4.47;;;3.20;;
59271;SDS011;45043;51.068;7.026;2022-09-14T10:32:37;3.70;;;3.27;;
59271;SDS011;45043;51.068;7.026;2022-09-14T10:39:13;2.83;;;2.60;;
59271;SDS011;45043;51.068;7.026;2022-09-14T10:42:24;5.77;;;5.00;;
59271;SDS011;45043;51.068;7.026;2022-09-14T10:45:50;3.63;;;3.33;;
59271;SDS011;45043;51.068;7.026;2022-09-14T10:48:59;4.07;;;3.67;;
59271;SDS011;45043;51.068;7.026;2022-09-14T10:52:36;6.27;;;3.60;;
59271;SDS011;45043;51.068;7.026;2022-09-14T11:09:22;18.13;;;15.60;;
59271;SDS011;45043;51.068;7.026;2022-09-14T11:15:26;2.90;;;2.60;;
59271;SDS011;45043;51.068;7.026;2022-09-14T11:18:50;2.70;;;2.50;;
59271;SDS011;45043;51.068;7.026;2022-09-14T11:25:07;2.77;;;2.57;;
59271;SDS011;45043;51.068;7.026;2022-09-14T11:42:11;3.73;;;2.97;;
59271;SDS011;45043;51.068;7.026;2022-09-14T11:45:04;3.90;;;3.27;;
59271;SDS011;45043;51.068;7.026;2022-09-14T11:48:29;3.00;;;2.70;;
59271;SDS011;45043;51.068;7.026;2022-09-14T11:51:46;2.20;;;2.00;;
59271;SDS011;45043;51.068;7.026;2022-09-14T11:54:52;2.87;;;2.20;;
59271;SDS011;45043;51.068;7.026;2022-09-14T11:57:53;2.40;;;2.20;;
59271;SDS011;45043;51.068;7.026;2022-09-14T12:01:01;2.37;;;2.13;;
59271;SDS011;45043;51.068;7.026;2022-09-14T12:04:24;2.07;;;1.90;;
59271;SDS011;45043;51.068;7.026;2022-09-14T12:08:12;4.23;;;1.97;;
59271;SDS011;45043;51.068;7.026;2022-09-14T12:10:57;2.53;;;1.70;;
59271;SDS011;45043;51.068;7.026;2022-09-14T12:17:39;2.00;;;1.90;;
59271;SDS011;45043;51.068;7.026;2022-09-14T12:20:42;2.27;;;1.90;;
59271;SDS011;45043;51.068;7.026;2022-09-14T12:23:45;1.97;;;1.87;;
59271;SDS011;45043;51.068;7.026;2022-09-14T12:26:50;2.47;;;2.27;;
59271;SDS011;45043;51.068;7.026;2022-09-14T12:29:51;4.27;;;2.37;;
59271;SDS011;45043;51.068;7.026;2022-09-14T12:32:52;2.80;;;2.47;;
59271;SDS011;45043;51.068;7.026;2022-09-14T12:35:52;5.13;;;3.27;;
59271;SDS011;45043;51.068;7.026;2022-09-14T12:44:55;2.20;;;2.00;;
59271;SDS011;45043;51.068;7.026;2022-09-14T12:47:55;2.30;;;2.00;;
59271;SDS011;45043;51.068;7.026;2022-09-14T12:50:56;2.57;;;2.37;;
59271;SDS011;45043;51.068;7.026;2022-09-14T13:03:41;2.27;;;1.70;;
59271;SDS011;45043;51.068;7.026;2022-09-14T13:06:38;1.83;;;1.63;;
59271;SDS011;45043;51.068;7.026;2022-09-14T13:09:45;2.20;;;2.00;;
59271;SDS011;45043;51.068;7.026;2022-09-14T13:12:48;1.77;;;1.67;;
59271;SDS011;45043;51.068;7.026;2022-09-14T13:16:00;2.23;;;1.73;;
59271;SDS011;45043;51.068;7.026;2022-09-14T13:19:04;2.20;;;1.67;;
59271;SDS011;45043;51.068;7.026;2022-09-14T13:22:16;2.67;;;1.70;;
59271;SDS011;45043;51.068;7.026;2022-09-14T13:25:38;3.93;;;1.87;;
59271;SDS011;45043;51.068;7.026;2022-09-14T13:28:40;1.83;;;1.67;;
59271;SDS011;45043;51.068;7.026;2022-09-14T13:31:44;2.70;;;1.67;;
59271;SDS011;45043;51.068;7.026;2022-09-14T13:34:44;4.57;;;3.03;;
59271;SDS011;45043;51.068;7.026;2022-09-14T13:37:46;3.10;;;2.70;;
59271;SDS011;45043;51.068;7.026;2022-09-14T13:40:46;1.50;;;1.50;;
59271;SDS011;45043;51.068;7.026;2022-09-14T13:43:51;2.40;;;1.87;;
59271;SDS011;45043;51.068;7.026;2022-09-14T13:46:53;2.30;;;2.10;;
59271;SDS011;45043;51.068;7.026;2022-09-14T13:49:57;2.23;;;2.03;;
59271;SDS011;45043;51.068;7.026;2022-09-14T13:52:59;2.60;;;2.30;;
59271;SDS011;45043;51.068;7.026;2022-09-14T13:56:13;2.70;;;2.50;;
59271;SDS011;45043;51.068;7.026;2022-09-14T13:59:20;2.50;;;2.30;;
59271;SDS011;45043;51.068;7.026;2022-09-14T14:02:21;2.77;;;2.00;;
59271;SDS011;45043;51.068;7.026;2022-09-14T14:05:25;3.57;;;1.90;;
59271;SDS011;45043;51.068;7.026;2022-09-14T14:08:35;2.73;;;2.40;;
59271;SDS011;45043;51.068;7.026;2022-09-14T14:11:38;4.63;;;2.63;;
59271;SDS011;45043;51.068;7.026;2022-09-14T14:14:41;2.50;;;2.30;;
59271;SDS011;45043;51.068;7.026;2022-09-14T14:17:42;3.13;;;1.90;;
59271;SDS011;45043;51.068;7.026;2022-09-14T14:20:43;8.37;;;3.10;;
59271;SDS011;45043;51.068;7.026;2022-09-14T14:23:43;3.17;;;2.13;;
59271;SDS011;45043;51.068;7.026;2022-09-14T14:26:52;2.67;;;2.30;;
59271;SDS011;45043;51.068;7.026;2022-09-14T14:29:55;2.53;;;2.33;;
59271;SDS011;45043;51.068;7.026;2022-09-14T14:32:56;2.50;;;2.30;;
59271;SDS011;45043;51.068;7.026;2022-09-14T14:35:57;2.47;;;2.27;;
59271;SDS011;45043;51.068;7.026;2022-09-14T14:38:58;2.97;;;2.67;;
59271;SDS011;45043;51.068;7.026;2022-09-14T14:41:59;2.77;;;2.57;;
59271;SDS011;45043;51.068;7.026;2022-09-14T14:45:01;2.47;;;2.27;;
59271;SDS011;45043;51.068;7.026;2022-09-14T14:48:02;2.37;;;2.13;;
59271;SDS011;45043;51.068;7.026;2022-09-14T14:51:03;3.20;;;2.50;;
59271;SDS011;45043;51.068;7.026;2022-09-14T14:54:05;2.57;;;2.30;;
59271;SDS011;45043;51.068;7.026;2022-09-14T14:57:07;3.57;;;3.30;;
59271;SDS011;45043;51.068;7.026;2022-09-14T15:00:11;2.97;;;2.77;;
59271;SDS011;45043;51.068;7.026;2022-09-14T15:03:15;3.37;;;3.17;;
59271;SDS011;45043;51.068;7.026;2022-09-14T15:06:19;2.87;;;2.67;;
59271;SDS011;45043;51.068;7.026;2022-09-14T15:09:26;4.80;;;3.60;;
59271;SDS011;45043;51.068;7.026;2022-09-14T15:12:32;6.57;;;4.07;;
59271;SDS011;45043;51.068;7.026;2022-09-14T15:15:33;3.57;;;3.20;;
59271;SDS011;45043;51.068;7.026;2022-09-14T15:18:34;6.00;;;3.13;;
59271;SDS011;45043;51.068;7.026;2022-09-14T15:21:35;3.20;;;2.80;;
59271;SDS011;45043;51.068;7.026;2022-09-14T15:24:36;3.57;;;3.00;;
59271;SDS011;45043;51.068;7.026;2022-09-14T15:27:37;7.13;;;3.60;;
59271;SDS011;45043;51.068;7.026;2022-09-14T15:30:39;3.93;;;3.17;;
59271;SDS011;45043;51.068;7.026;2022-09-14T15:33:40;3.13;;;2.87;;
59271;SDS011;45043;51.068;7.026;2022-09-14T15:36:42;3.20;;;2.90;;
59271;SDS011;45043;51.068;7.026;2022-09-14T15:39:47;2.40;;;2.20;;
59271;SDS011;45043;51.068;7.026;2022-09-14T15:42:49;2.40;;;2.20;;
59271;SDS011;45043;51.068;7.026;2022-09-14T15:45:50;2.90;;;2.13;;
59271;SDS011;45043;51.068;7.026;2022-09-14T15:48:50;2.70;;;2.30;;
59271;SDS011;45043;51.068;7.026;2022-09-14T15:51:52;2.07;;;1.90;;
59271;SDS011;45043;51.068;7.026;2022-09-14T15:54:53;2.47;;;2.27;;
59271;SDS011;45043;51.068;7.026;2022-09-14T15:57:54;2.07;;;1.97;;
59271;SDS011;45043;51.068;7.026;2022-09-14T16:00:54;3.40;;;2.60;;
59271;SDS011;45043;51.068;7.026;2022-09-14T16:03:56;2.40;;;2.20;;
59271;SDS011;45043;51.068;7.026;2022-09-14T16:06:57;3.73;;;2.83;;
59271;SDS011;45043;51.068;7.026;2022-09-14T16:09:57;2.80;;;2.60;;
59271;SDS011;45043;51.068;7.026;2022-09-14T16:12:58;4.87;;;2.90;;
59271;SDS011;45043;51.068;7.026;2022-09-14T16:16:09;2.90;;;2.60;;
59271;SDS011;45043;51.068;7.026;2022-09-14T16:19:11;3.87;;;2.80;;
59271;SDS011;45043;51.068;7.026;2022-09-14T16:22:13;3.80;;;3.40;;
59271;SDS011;45043;51.068;7.026;2022-09-14T16:25:14;7.87;;;4.50;;
59271;SDS011;45043;51.068;7.026;2022-09-14T16:28:15;3.10;;;2.90;;
59271;SDS011;45043;51.068;7.026;2022-09-14T16:31:34;3.77;;;3.47;;
59271;SDS011;45043;51.068;7.026;2022-09-14T16:34:37;6.50;;;3.87;;
59271;SDS011;45043;51.068;7.026;2022-09-14T16:37:37;3.50;;;3.20;;
59271;SDS011;45043;51.068;7.026;2022-09-14T16:40:38;3.70;;;3.40;;
59271;SDS011;45043;51.068;7.026;2022-09-14T16:43:38;3.90;;;3.60;;
59271;SDS011;45043;51.068;7.026;2022-09-14T16:46:39;3.70;;;3.40;;
59271;SDS011;45043;51.068;7.026;2022-09-14T16:49:40;3.87;;;3.20;;
59271;SDS011;45043;51.068;7.026;2022-09-14T16:52:41;4.20;;;3.80;;
59271;SDS011;45043;51.068;7.026;2022-09-14T16:55:41;3.90;;;3.60;;
59271;SDS011;45043;51.068;7.026;2022-09-14T16:58:42;4.20;;;3.90;;
59271;SDS011;45043;51.068;7.026;2022-09-14T17:01:45;4.30;;;3.90;;
59271;SDS011;45043;51.068;7.026;2022-09-14T17:04:46;4.80;;;4.07;;
59271;SDS011;45043;51.068;7.026;2022-09-14T17:07:46;5.00;;;4.60;;
59271;SDS011;45043;51.068;7.026;2022-09-14T17:10:48;5.30;;;4.90;;
59271;SDS011;45043;51.068;7.026;2022-09-14T17:13:48;5.70;;;5.03;;
59271;SDS011;45043;51.068;7.026;2022-09-14T17:16:50;6.17;;;5.50;;
59271;SDS011;45043;51.068;7.026;2022-09-14T17:19:51;6.43;;;5.83;;
59271;SDS011;45043;51.068;7.026;2022-09-14T17:22:52;5.87;;;5.27;;
59271;SDS011;45043;51.068;7.026;2022-09-14T17:25:53;7.30;;;5.90;;
59271;SDS011;45043;51.068;7.026;2022-09-14T17:28:54;6.47;;;5.93;;
59271;SDS011;45043;51.068;7.026;2022-09-14T17:31:56;6.00;;;5.47;;
59271;SDS011;45043;51.068;7.026;2022-09-14T17:34:57;5.93;;;5.43;;
59271;SDS011;45043;51.068;7.026;2022-09-14T17:37:57;5.97;;;5.47;;
59271;SDS011;45043;51.068;7.026;2022-09-14T17:41:02;6.33;;;5.73;;
59271;SDS011;45043;51.068;7.026;2022-09-14T17:44:04;6.30;;;5.67;;
59271;SDS011;45043;51.068;7.026;2022-09-14T17:47:05;6.53;;;5.87;;
59271;SDS011;45043;51.068;7.026;2022-09-14T17:50:06;6.37;;;5.70;;
59271;SDS011;45043;51.068;7.026;2022-09-14T17:53:06;6.80;;;6.00;;
59271;SDS011;45043;51.068;7.026;2022-09-14T17:56:08;6.73;;;6.03;;
59271;SDS011;45043;51.068;7.026;2022-09-14T17:59:11;8.13;;;7.07;;
59271;SDS011;45043;51.068;7.026;2022-09-14T18:02:13;8.17;;;6.70;;
59271;SDS011;45043;51.068;7.026;2022-09-14T18:05:13;6.30;;;5.67;;
59271;SDS011;45043;51.068;7.026;2022-09-14T18:08:14;6.43;;;5.83;;
59271;SDS011;45043;51.068;7.026;2022-09-14T18:11:15;7.53;;;6.47;;
59271;SDS011;45043;51.068;7.026;2022-09-14T18:14:16;6.97;;;6.37;;
59271;SDS011;45043;51.068;7.026;2022-09-14T18:17:18;8.27;;;6.40;;
59271;SDS011;45043;51.068;7.026;2022-09-14T18:20:19;9.87;;;6.17;;
59271;SDS011;45043;51.068;7.026;2022-09-14T18:23:20;10.30;;;6.73;;
59271;SDS011;45043;51.068;7.026;2022-09-14T18:26:21;10.63;;;8.77;;
59271;SDS011;45043;51.068;7.026;2022-09-14T18:29:22;7.93;;;7.13;;
59271;SDS011;45043;51.068;7.026;2022-09-14T18:32:23;6.63;;;6.03;;
59271;SDS011;45043;51.068;7.026;2022-09-14T18:35:24;6.33;;;5.73;;
59271;SDS011;45043;51.068;7.026;2022-09-14T18:38:25;7.47;;;5.60;;
59271;SDS011;45043;51.068;7.026;2022-09-14T18:41:26;6.10;;;5.60;;
59271;SDS011;45043;51.068;7.026;2022-09-14T18:44:30;5.93;;;5.33;;
59271;SDS011;45043;51.068;7.026;2022-09-14T18:47:31;7.47;;;6.00;;
59271;SDS011;45043;51.068;7.026;2022-09-14T18:50:31;9.50;;;7.03;;
59271;SDS011;45043;51.068;7.026;2022-09-14T18:53:32;10.70;;;8.67;;
59271;SDS011;45043;51.068;7.026;2022-09-14T18:56:33;14.83;;;10.57;;
59271;SDS011;45043;51.068;7.026;2022-09-14T18:59:36;12.00;;;10.80;;
59271;SDS011;45043;51.068;7.026;2022-09-14T19:02:36;12.63;;;11.27;;
59271;SDS011;45043;51.068;7.026;2022-09-14T19:05:41;10.63;;;9.53;;
59271;SDS011;45043;51.068;7.026;2022-09-14T19:08:42;9.60;;;8.70;;
59271;SDS011;45043;51.068;7.026;2022-09-14T19:11:42;11.90;;;9.83;;
59271;SDS011;45043;51.068;7.026;2022-09-14T19:14:43;11.00;;;10.00;;
59271;SDS011;45043;51.068;7.026;2022-09-14T19:17:43;13.80;;;12.40;;
59271;SDS011;45043;51.068;7.026;2022-09-14T19:20:44;14.57;;;12.93;;
59271;SDS011;45043;51.068;7.026;2022-09-14T19:23:47;12.50;;;11.20;;
59271;SDS011;45043;51.068;7.026;2022-09-14T19:26:48;13.73;;;12.57;;
59271;SDS011;45043;51.068;7.026;2022-09-14T19:29:51;15.27;;;13.77;;
59271;SDS011;45043;51.068;7.026;2022-09-14T19:32:51;16.23;;;14.67;;
59271;SDS011;45043;51.068;7.026;2022-09-14T19:35:52;12.73;;;11.53;;
59271;SDS011;45043;51.068;7.026;2022-09-14T19:38:52;15.53;;;13.93;;
59271;SDS011;45043;51.068;7.026;2022-09-14T19:41:54;13.13;;;11.83;;
59271;SDS011;45043;51.068;7.026;2022-09-14T19:44:55;16.70;;;15.03;;
59271;SDS011;45043;51.068;7.026;2022-09-14T19:47:55;17.27;;;15.60;;